Time;durP1;ratioP1;P1;durP2;ratioP2;P2;SDS_P1;SDS_P2;PMS_P1;PMS_P2;Temp;Humidity;BMP_temperature;BMP_pressure;BME280_temperature;BME280_humidity;BME280_pressure;Samples;Min_cycle;Max_cycle;Signal;HPM_P1;HPM_P2
2023/09/04 04:00:16;;;;;;;3.07;2.87;;;12.20;99.90;;;;;;6069157;23;20419;31
2023/09/04 04:02:43;;;;;;;2.85;2.75;;;12.20;99.90;;;;;;6119162;23;20241;-70
2023/09/04 04:05:11;;;;;;;3.40;3.17;;;12.20;99.90;;;;;;6123648;23;20180;-70
2023/09/04 04:07:38;;;;;;;3.53;3.22;;;12.20;99.90;;;;;;6120550;23;20184;-70
2023/09/04 04:10:06;;;;;;;3.25;3.00;;;12.20;99.90;;;;;;6122704;23;20172;-70
2023/09/04 04:12:33;;;;;;;3.13;2.95;;;12.20;99.90;;;;;;6094531;23;20236;-70
2023/09/04 04:15:03;;;;;;;2.75;2.65;;;12.20;99.90;;;;;;6094421;23;20191;-70
2023/09/04 04:17:32;;;;;;;3.00;2.90;;;12.10;99.90;;;;;;6094133;23;20176;-70
2023/09/04 04:19:58;;;;;;;3.00;2.85;;;12.10;99.90;;;;;;6103903;23;20184;-70
2023/09/04 04:22:25;;;;;;;3.10;2.90;;;12.10;99.90;;;;;;6093492;23;20216;-70
2023/09/04 04:24:52;;;;;;;2.70;2.60;;;12.10;99.90;;;;;;6093856;23;20184;-70
2023/09/04 04:27:19;;;;;;;3.15;3.05;;;12.10;99.90;;;;;;6091064;23;20185;-69
2023/09/04 04:29:49;;;;;;;3.30;2.90;;;12.10;99.90;;;;;;6094094;23;20572;-70
2023/09/04 04:32:15;;;;;;;3.08;2.97;;;12.10;99.90;;;;;;6094226;23;20203;-70
2023/09/04 04:34:43;;;;;;;4.28;3.40;;;12.10;99.90;;;;;;6094869;23;20188;-70
2023/09/04 04:37:10;;;;;;;3.30;3.10;;;12.10;99.90;;;;;;6094259;23;20180;-70
2023/09/04 04:39:37;;;;;;;4.05;2.80;;;12.10;99.90;;;;;;6093814;23;20490;-71
2023/09/04 04:42:04;;;;;;;3.53;3.35;;;12.10;99.90;;;;;;6094056;23;20582;-69
2023/09/04 04:44:31;;;;;;;3.70;3.40;;;12.00;99.90;;;;;;6094400;23;20510;-70
2023/09/04 04:46:58;;;;;;;2.80;2.70;;;12.00;99.90;;;;;;6094522;23;20181;-70
2023/09/04 04:49:25;;;;;;;3.05;2.85;;;12.00;99.90;;;;;;6093992;23;20184;-70
2023/09/04 04:51:54;;;;;;;3.65;3.40;;;12.00;99.90;;;;;;6103262;23;20517;-69
2023/09/04 04:54:21;;;;;;;3.13;2.95;;;12.00;99.90;;;;;;6093918;23;20286;-69
2023/09/04 04:56:48;;;;;;;3.00;2.90;;;12.00;99.90;;;;;;6094319;23;20195;-70
2023/09/04 04:59:15;;;;;;;6.43;4.07;;;12.00;99.90;;;;;;6094005;23;20208;-70
2023/09/04 05:01:42;;;;;;;3.08;2.88;;;12.00;99.90;;;;;;6093590;23;20681;-69
2023/09/04 05:04:09;;;;;;;2.55;2.45;;;12.00;99.90;;;;;;6094333;23;20192;-70
2023/09/04 05:06:35;;;;;;;3.95;3.65;;;12.10;99.90;;;;;;6094576;23;20193;-71
2023/09/04 05:09:05;;;;;;;3.08;2.83;;;12.10;99.90;;;;;;6093303;23;20192;-70
2023/09/04 05:11:31;;;;;;;2.72;2.63;;;12.10;99.90;;;;;;6094587;23;20578;-70
2023/09/04 05:13:58;;;;;;;3.35;3.15;;;12.10;99.90;;;;;;6094295;23;20187;-70
2023/09/04 05:16:26;;;;;;;4.60;3.67;;;12.10;99.90;;;;;;6095466;23;20181;-70
2023/09/04 05:18:53;;;;;;;3.58;3.38;;;12.10;99.90;;;;;;6095302;23;20216;-69
2023/09/04 05:21:20;;;;;;;2.80;2.70;;;12.10;99.90;;;;;;6095801;23;20205;-70
2023/09/04 05:23:47;;;;;;;3.13;3.00;;;12.10;99.90;;;;;;6094600;23;20269;-70
2023/09/04 05:26:15;;;;;;;3.90;3.70;;;12.20;99.90;;;;;;6095672;23;20570;-71
2023/09/04 05:28:42;;;;;;;3.13;2.92;;;12.20;99.90;;;;;;6094476;23;20188;-70
2023/09/04 05:31:09;;;;;;;4.57;4.30;;;12.20;99.90;;;;;;6094689;23;20204;-70
2023/09/04 05:33:36;;;;;;;3.90;3.70;;;12.30;99.90;;;;;;6095578;23;20260;-70
2023/09/04 05:36:02;;;;;;;3.50;3.30;;;12.30;99.90;;;;;;6094743;23;20185;-70
2023/09/04 05:38:29;;;;;;;3.30;3.00;;;12.30;99.90;;;;;;6092436;23;20188;-70
2023/09/04 05:40:57;;;;;;;4.20;3.65;;;12.40;99.90;;;;;;6092861;23;20447;-71
2023/09/04 05:43:26;;;;;;;4.05;3.55;;;12.40;99.90;;;;;;6093302;23;20192;-71
2023/09/04 05:45:54;;;;;;;3.65;3.45;;;12.50;99.90;;;;;;6095945;23;20184;-70
2023/09/04 05:48:21;;;;;;;3.17;3.03;;;12.50;99.90;;;;;;6094357;23;20181;-71
2023/09/04 05:50:47;;;;;;;2.97;2.87;;;12.50;99.90;;;;;;6094230;23;20227;-69
2023/09/04 05:53:14;;;;;;;3.67;3.47;;;12.60;99.90;;;;;;6095238;23;20425;-70
2023/09/04 05:55:42;;;;;;;3.30;3.10;;;12.60;99.90;;;;;;6095788;23;20421;-70
2023/09/04 05:58:11;;;;;;;3.90;3.60;;;12.70;99.90;;;;;;6095037;23;20191;-70
2023/09/04 06:00:40;;;;;;;4.25;3.67;;;12.70;99.90;;;;;;6094075;23;20785;-69
2023/09/04 06:03:09;;;;;;;3.75;3.55;;;12.70;99.90;;;;;;6093790;23;20261;-70
2023/09/04 06:05:36;;;;;;;3.50;3.40;;;12.80;99.90;;;;;;6094965;23;20185;-69
2023/09/04 06:08:03;;;;;;;3.67;3.43;;;12.90;99.90;;;;;;6094329;23;20420;-70
2023/09/04 06:10:29;;;;;;;3.30;3.20;;;12.90;99.90;;;;;;6093841;23;20897;-70
2023/09/04 06:12:57;;;;;;;6.60;3.70;;;13.00;99.90;;;;;;6095483;23;20420;-69
2023/09/04 06:15:23;;;;;;;3.33;3.13;;;13.00;99.90;;;;;;6095389;23;20456;-70
2023/09/04 06:17:51;;;;;;;3.57;3.37;;;13.10;99.90;;;;;;6095149;23;20427;-70
2023/09/04 06:20:18;;;;;;;3.70;3.50;;;13.10;99.90;;;;;;6094649;23;20452;-69
2023/09/04 06:22:45;;;;;;;3.80;3.50;;;13.20;99.90;;;;;;6094077;23;20456;-69
2023/09/04 06:25:11;;;;;;;3.47;3.27;;;13.30;99.90;;;;;;6095263;23;20427;-70
2023/09/04 06:27:38;;;;;;;3.37;2.97;;;13.30;99.90;;;;;;6093778;23;20429;-70
2023/09/04 06:30:06;;;;;;;3.80;3.60;;;13.40;99.90;;;;;;6092772;23;20928;-70
2023/09/04 06:32:33;;;;;;;3.33;3.20;;;13.60;99.90;;;;;;6094342;23;20447;-70
2023/09/04 06:35:01;;;;;;;3.40;3.20;;;13.60;99.90;;;;;;6094709;23;20755;-69
2023/09/04 06:37:28;;;;;;;3.33;3.23;;;13.70;99.90;;;;;;6093406;23;20421;-69
2023/09/04 06:39:54;;;;;;;3.53;3.33;;;13.80;99.90;;;;;;6102889;23;20442;-69
2023/09/04 06:42:21;;;;;;;3.13;3.03;;;13.90;99.90;;;;;;6094485;23;20496;-70
2023/09/04 06:44:48;;;;;;;3.73;3.53;;;14.00;99.90;;;;;;6093658;23;20420;-70
2023/09/04 06:47:14;;;;;;;3.40;3.17;;;14.00;99.90;;;;;;6094690;23;20420;-70
2023/09/04 06:49:41;;;;;;;3.87;3.73;;;14.10;99.90;;;;;;6092992;23;20421;-69
2023/09/04 06:52:09;;;;;;;3.77;3.57;;;14.20;99.90;;;;;;6094064;23;20444;-70
2023/09/04 06:54:36;;;;;;;4.10;3.77;;;14.30;99.90;;;;;;6094842;23;20724;-70
2023/09/04 06:57:03;;;;;;;4.97;3.37;;;14.40;99.90;;;;;;6094526;23;20420;-70
2023/09/04 06:59:29;;;;;;;2.90;2.77;;;14.50;99.90;;;;;;6094903;23;20798;-70
2023/09/04 07:01:56;;;;;;;3.80;3.70;;;14.60;99.90;;;;;;6094126;23;20968;-71
2023/09/04 07:04:23;;;;;;;3.13;2.93;;;14.70;99.90;;;;;;6093811;23;20452;-71
2023/09/04 07:06:49;;;;;;;3.40;3.20;;;14.80;99.90;;;;;;6092625;23;20428;-70
2023/09/04 07:09:17;;;;;;;2.83;2.83;;;14.90;99.90;;;;;;6094111;23;20424;-71
2023/09/04 07:11:44;;;;;;;3.03;2.77;;;14.90;99.90;;;;;;6094572;23;20464;-71
2023/09/04 07:14:11;;;;;;;3.40;3.20;;;15.00;99.90;;;;;;6094666;23;20421;-72
2023/09/04 07:16:38;;;;;;;2.83;2.73;;;15.10;99.90;;;;;;6094370;23;20421;-70
2023/09/04 07:19:05;;;;;;;3.23;3.03;;;15.20;99.90;;;;;;6092502;23;20511;-70
2023/09/04 07:21:32;;;;;;;3.20;3.03;;;15.30;99.90;;;;;;6093086;23;20444;-70
2023/09/04 07:23:59;;;;;;;3.17;3.00;;;15.40;99.90;;;;;;6093765;23;20790;-70
2023/09/04 07:26:27;;;;;;;2.60;2.50;;;15.50;99.90;;;;;;6094257;23;20416;-70
2023/09/04 07:28:53;;;;;;;4.33;2.67;;;15.60;99.90;;;;;;6094911;23;20421;-71
2023/09/04 07:31:21;;;;;;;2.87;2.60;;;15.60;99.90;;;;;;6095041;23;20445;-69
2023/09/04 07:33:49;;;;;;;3.23;3.07;;;15.80;99.90;;;;;;6096406;23;20932;-71
2023/09/04 07:36:15;;;;;;;2.87;2.50;;;15.90;99.90;;;;;;6096495;23;20424;-71
2023/09/04 07:38:43;;;;;;;2.50;2.40;;;16.10;99.90;;;;;;6094422;23;20949;-69
2023/09/04 07:41:10;;;;;;;2.47;2.37;;;16.20;99.90;;;;;;6096041;23;20531;-70
2023/09/04 07:43:38;;;;;;;2.43;2.33;;;16.30;99.90;;;;;;6096556;23;20444;-69
2023/09/04 07:46:05;;;;;;;2.80;2.70;;;16.50;99.90;;;;;;6096314;23;20424;-69
2023/09/04 07:48:33;;;;;;;2.50;2.40;;;16.60;99.90;;;;;;6096128;23;20435;-70
2023/09/04 07:51:00;;;;;;;2.20;2.20;;;16.80;99.90;;;;;;6094984;23;20466;-71
2023/09/04 07:53:27;;;;;;;2.27;2.27;;;16.90;99.90;;;;;;6094254;23;20788;-70
2023/09/04 07:55:54;;;;;;;2.73;2.27;;;16.90;99.90;;;;;;6092419;23;20431;-70
2023/09/04 07:58:21;;;;;;;2.80;2.70;;;17.00;99.90;;;;;;6094834;23;20425;-69
2023/09/04 08:00:51;;;;;;;2.10;2.00;;;17.20;99.90;;;;;;6093580;23;20566;-70
2023/09/04 08:03:18;;;;;;;2.20;2.10;;;17.30;99.90;;;;;;6102875;23;20487;-70
2023/09/04 08:05:45;;;;;;;1.80;1.80;;;17.40;99.90;;;;;;6095338;23;20426;-70
2023/09/04 08:08:12;;;;;;;2.00;2.00;;;17.50;99.90;;;;;;6094128;23;20425;-71
2023/09/04 08:10:41;;;;;;;2.13;2.10;;;17.60;99.90;;;;;;6094086;23;20469;-70
2023/09/04 08:13:10;;;;;;;2.27;2.17;;;17.70;99.90;;;;;;6093071;23;21249;-69
2023/09/04 08:15:37;;;;;;;2.83;2.60;;;17.80;99.90;;;;;;6093255;23;20434;-71
2023/09/04 08:18:07;;;;;;;2.23;2.10;;;17.80;99.90;;;;;;6094143;23;20423;-70
2023/09/04 08:20:33;;;;;;;1.60;1.60;;;18.00;99.90;;;;;;6093648;23;20452;-69
2023/09/04 08:23:00;;;;;;;1.10;1.10;;;18.10;99.90;;;;;;6093045;23;20453;-71
2023/09/04 08:25:27;;;;;;;1.40;1.40;;;18.30;99.90;;;;;;6094112;23;20426;-72
2023/09/04 08:27:54;;;;;;;1.70;1.60;;;18.40;99.90;;;;;;6094000;23;20930;-70
2023/09/04 08:30:21;;;;;;;1.50;1.50;;;18.50;99.90;;;;;;6093641;23;20436;-71
2023/09/04 08:32:48;;;;;;;1.67;1.67;;;18.60;99.90;;;;;;6094397;23;20931;-69
2023/09/04 08:35:17;;;;;;;1.73;1.73;;;18.60;99.90;;;;;;6093930;23;20429;-71
2023/09/04 08:37:44;;;;;;;1.90;1.80;;;18.70;99.90;;;;;;6094420;23;20473;-71
2023/09/04 08:40:12;;;;;;;1.40;1.40;;;18.80;99.90;;;;;;6093756;23;20511;-71
2023/09/04 08:42:40;;;;;;;1.43;1.43;;;18.90;99.90;;;;;;6093262;23;21505;-71
2023/09/04 08:45:08;;;;;;;0.87;0.87;;;18.90;99.90;;;;;;6093816;23;20428;-71
2023/09/04 08:47:40;;;;;;;1.93;1.83;;;18.90;99.90;;;;;;6093839;23;20427;-72
2023/09/04 08:50:07;;;;;;;1.80;1.70;;;19.00;99.90;;;;;;6095023;23;20465;-71
2023/09/04 08:52:37;;;;;;;1.13;1.13;;;19.10;99.90;;;;;;6094920;23;20449;-70
2023/09/04 08:55:05;;;;;;;1.10;1.10;;;19.20;99.90;;;;;;6095492;23;20438;-70
2023/09/04 08:57:33;;;;;;;1.13;1.13;;;19.20;99.90;;;;;;6095501;23;20434;-71
2023/09/04 09:00:00;;;;;;;1.00;1.00;;;19.20;99.90;;;;;;6096313;23;20487;-70
2023/09/04 09:02:27;;;;;;;0.93;0.93;;;19.30;99.90;;;;;;6094325;23;20455;-70
2023/09/04 09:04:54;;;;;;;1.00;1.00;;;19.50;99.90;;;;;;6095425;23;20423;-71
2023/09/04 09:07:23;;;;;;;1.20;1.20;;;19.70;99.90;;;;;;6095113;23;20929;-71
2023/09/04 09:09:52;;;;;;;1.10;1.10;;;19.80;99.90;;;;;;6095374;23;20541;-71
2023/09/04 09:12:18;;;;;;;1.20;1.20;;;19.70;99.90;;;;;;6095496;23;20443;-70
2023/09/04 09:14:45;;;;;;;1.57;1.47;;;19.60;99.90;;;;;;6094360;23;21318;-69
2023/09/04 09:17:14;;;;;;;1.23;1.23;;;19.70;99.90;;;;;;6095603;23;20423;-68
2023/09/04 09:19:42;;;;;;;1.20;1.20;;;19.60;99.90;;;;;;6095916;23;20430;-70
2023/09/04 09:22:10;;;;;;;1.10;1.10;;;19.80;99.90;;;;;;6095607;23;20451;-70
2023/09/04 09:24:51;;;;;;;1.33;1.23;;;19.80;99.90;;;;;;6095140;23;20408;-71
2023/09/04 09:27:19;;;;;;;1.20;1.10;;;19.90;99.90;;;;;;6094730;23;20777;-71
2023/09/04 09:29:46;;;;;;;1.00;0.90;;;20.00;99.90;;;;;;6095046;23;20544;-70
2023/09/04 09:32:13;;;;;;;1.00;1.00;;;20.10;99.90;;;;;;6095064;23;20444;-71
2023/09/04 09:34:40;;;;;;;0.80;0.80;;;20.20;99.90;;;;;;6095259;23;20423;-70
2023/09/04 09:37:07;;;;;;;1.50;1.40;;;20.20;99.90;;;;;;6095308;23;20423;-71
2023/09/04 09:39:35;;;;;;;1.60;1.50;;;20.20;99.90;;;;;;6104591;23;20686;-70
2023/09/04 09:42:04;;;;;;;1.30;1.30;;;20.30;99.90;;;;;;6095273;23;20443;-71
2023/09/04 09:44:32;;;;;;;1.60;1.60;;;20.30;99.90;;;;;;6094744;23;20416;-70
2023/09/04 09:46:58;;;;;;;1.00;1.00;;;20.40;99.90;;;;;;6095765;23;20703;-70
2023/09/04 09:49:25;;;;;;;1.00;1.00;;;20.50;99.90;;;;;;6094135;23;21045;-71
2023/09/04 09:51:53;;;;;;;0.67;0.67;;;20.50;99.90;;;;;;6093023;23;20448;-72
2023/09/04 09:54:34;;;;;;;1.33;1.33;;;20.50;99.90;;;;;;6095124;23;20416;-71
2023/09/04 09:57:01;;;;;;;1.00;1.00;;;20.50;99.90;;;;;;6095618;23;20411;-71
2023/09/04 09:59:30;;;;;;;1.10;1.10;;;20.60;99.90;;;;;;6094468;23;20754;-69
2023/09/04 10:01:58;;;;;;;1.37;1.37;;;20.60;99.90;;;;;;6094524;23;20446;-70
2023/09/04 10:04:26;;;;;;;1.20;1.20;;;20.70;99.90;;;;;;6095387;23;20781;-71
2023/09/04 10:06:54;;;;;;;0.90;0.90;;;20.90;99.90;;;;;;6092942;23;20956;-70
2023/09/04 10:09:23;;;;;;;2.53;0.87;;;21.00;99.90;;;;;;6094964;23;20452;-70
2023/09/04 10:11:54;;;;;;;1.73;1.23;;;21.00;99.90;;;;;;6095491;23;20843;-70
2023/09/04 10:14:27;;;;;;;1.27;1.20;;;21.10;99.90;;;;;;6092467;23;20427;-71
2023/09/04 10:16:59;;;;;;;1.67;1.30;;;21.20;99.90;;;;;;6094548;23;20406;-70
2023/09/04 10:19:30;;;;;;;1.40;1.40;;;21.20;99.90;;;;;;6095143;23;20414;-70
2023/09/04 10:22:02;;;;;;;0.80;0.80;;;21.10;99.90;;;;;;6092116;23;20468;-71
2023/09/04 10:24:38;;;;;;;1.30;1.30;;;21.10;99.90;;;;;;6093784;23;20437;-70
2023/09/04 10:27:09;;;;;;;2.37;1.03;;;21.20;99.90;;;;;;6094203;23;20905;-70
2023/09/04 10:29:45;;;;;;;1.00;0.97;;;21.40;99.90;;;;;;6093563;23;20405;-71
2023/09/04 10:32:13;;;;;;;1.30;1.30;;;21.40;99.90;;;;;;6094221;23;20444;-72
2023/09/04 10:34:41;;;;;;;1.10;1.10;;;21.50;99.90;;;;;;6093838;23;20418;-72
2023/09/04 10:37:10;;;;;;;1.27;1.20;;;21.40;99.90;;;;;;6093562;23;20423;-72
2023/09/04 10:39:39;;;;;;;1.00;1.00;;;21.40;99.90;;;;;;6094040;23;20427;-71
2023/09/04 10:42:06;;;;;;;1.20;1.20;;;21.50;99.90;;;;;;6094236;23;20440;-71
2023/09/04 10:44:47;;;;;;;1.10;1.10;;;21.50;99.90;;;;;;6094109;23;20541;-70
2023/09/04 10:47:16;;;;;;;1.00;1.00;;;21.40;99.90;;;;;;6094224;23;20507;-71
2023/09/04 10:49:44;;;;;;;1.20;1.20;;;21.40;99.90;;;;;;6093460;23;20431;-71
2023/09/04 10:52:11;;;;;;;1.50;1.50;;;21.40;99.90;;;;;;6092506;23;20958;-71
2023/09/04 10:54:38;;;;;;;1.43;1.43;;;21.50;99.90;;;;;;6094056;23;20418;-71
2023/09/04 10:57:07;;;;;;;1.20;1.20;;;21.60;99.90;;;;;;6093957;23;20430;-71
2023/09/04 11:00:01;;;;;;;1.40;0.97;;;21.60;99.90;;;;;;6093827;23;20485;-71
2023/09/04 11:02:31;;;;;;;0.77;0.77;;;21.70;99.90;;;;;;6092875;23;20785;-70
2023/09/04 11:04:58;;;;;;;0.90;0.90;;;21.80;99.90;;;;;;6094443;23;20993;-71
2023/09/04 11:07:27;;;;;;;1.03;1.03;;;21.90;99.90;;;;;;6093861;23;20428;-71
2023/09/04 11:10:02;;;;;;;1.23;0.90;;;21.80;99.90;;;;;;6094008;23;20421;-73
2023/09/04 11:12:32;;;;;;;2.83;1.30;;;21.80;99.90;;;;;;6094466;23;20451;-71
2023/09/04 11:14:59;;;;;;;1.40;1.07;;;21.90;99.90;;;;;;6094030;23;20933;-70
2023/09/04 11:17:30;;;;;;;1.00;1.00;;;22.00;99.90;;;;;;6093937;23;20427;-70
2023/09/04 11:19:57;;;;;;;1.00;1.00;;;22.00;99.90;;;;;;6095611;23;20411;-71
2023/09/04 11:22:25;;;;;;;1.13;1.10;;;22.00;99.90;;;;;;6093439;23;20801;-71
2023/09/04 11:24:53;;;;;;;1.07;1.07;;;22.00;99.90;;;;;;6093880;23;20447;-71
2023/09/04 11:27:20;;;;;;;1.10;1.10;;;22.20;99.90;;;;;;6093720;23;20766;-71
2023/09/04 11:29:48;;;;;;;1.00;1.00;;;22.20;99.90;;;;;;6093281;23;20423;-71
2023/09/04 11:32:15;;;;;;;1.07;1.07;;;22.20;99.90;;;;;;6093575;23;20518;-71
2023/09/04 11:34:44;;;;;;;1.43;1.27;;;22.20;99.90;;;;;;6094003;23;20522;-71
2023/09/04 11:37:12;;;;;;;1.17;1.00;;;22.30;99.90;;;;;;6093402;23;20423;-72
2023/09/04 11:39:52;;;;;;;1.27;1.27;;;22.20;99.90;;;;;;6093699;23;20422;-71
2023/09/04 11:42:20;;;;;;;1.43;1.30;;;22.40;99.90;;;;;;6093967;23;20457;-70
2023/09/04 11:44:48;;;;;;;1.03;1.03;;;22.40;99.90;;;;;;6093320;23;20448;-72
2023/09/04 11:47:15;;;;;;;0.90;0.90;;;22.50;99.90;;;;;;6093451;23;20454;-71
2023/09/04 11:49:41;;;;;;;1.03;1.03;;;22.50;99.90;;;;;;6092332;23;20438;-72
2023/09/04 11:52:11;;;;;;;1.20;1.10;;;22.40;99.90;;;;;;6092747;23;20735;-71
2023/09/04 11:54:40;;;;;;;1.10;1.10;;;22.40;99.90;;;;;;6093051;23;20435;-71
2023/09/04 11:57:07;;;;;;;0.90;0.90;;;22.40;99.90;;;;;;6093168;23;20498;-71
2023/09/04 11:59:35;;;;;;;1.80;1.10;;;22.40;99.90;;;;;;6093363;23;20423;-70
2023/09/04 12:02:02;;;;;;;1.10;1.10;;;22.60;99.90;;;;;;6091559;23;20609;-70
2023/09/04 12:04:31;;;;;;;1.40;1.40;;;22.70;99.90;;;;;;6093486;23;20450;-71
2023/09/04 12:06:59;;;;;;;1.10;1.07;;;22.90;99.90;;;;;;6091920;23;20434;-71
2023/09/04 12:09:27;;;;;;;1.50;1.50;;;22.90;99.90;;;;;;6092489;23;20530;-69
2023/09/04 12:11:54;;;;;;;1.33;1.33;;;22.80;99.90;;;;;;6093780;23;20455;-70
2023/09/04 12:14:21;;;;;;;1.20;1.20;;;22.80;99.90;;;;;;6094077;23;20424;-71
2023/09/04 12:16:49;;;;;;;1.00;1.00;;;22.70;99.90;;;;;;6092967;23;20429;-71
2023/09/04 12:19:16;;;;;;;1.40;1.30;;;22.90;99.90;;;;;;6092414;23;20423;-70
2023/09/04 12:21:43;;;;;;;1.43;1.43;;;23.10;99.90;;;;;;6090569;23;20750;-69
2023/09/04 12:24:14;;;;;;;1.53;1.53;;;23.20;99.90;;;;;;6091248;23;20467;-70
2023/09/04 12:26:42;;;;;;;1.57;1.47;;;23.20;99.90;;;;;;6093181;23;21004;-69
2023/09/04 12:29:09;;;;;;;1.03;1.03;;;23.20;99.90;;;;;;6093182;23;20423;-71
2023/09/04 12:31:37;;;;;;;1.17;1.17;;;23.20;99.90;;;;;;6094963;23;20965;-70
2023/09/04 12:34:04;;;;;;;0.90;0.90;;;23.00;99.90;;;;;;6095233;23;20504;-71
2023/09/04 12:36:32;;;;;;;1.10;1.10;;;23.10;99.90;;;;;;6095354;23;20516;-70
2023/09/04 12:38:58;;;;;;;1.80;1.80;;;23.10;99.90;;;;;;6095474;23;20518;-70
2023/09/04 12:41:25;;;;;;;0.77;0.77;;;23.10;99.90;;;;;;6095728;23;20930;-70
2023/09/04 12:43:53;;;;;;;1.73;1.10;;;23.00;99.90;;;;;;6095901;23;20449;-71
2023/09/04 12:46:20;;;;;;;1.00;1.00;;;23.00;99.90;;;;;;6095792;23;20424;-70
2023/09/04 12:48:47;;;;;;;1.00;1.00;;;23.10;99.90;;;;;;6094689;23;20420;-71
2023/09/04 12:51:13;;;;;;;1.47;1.47;;;23.20;99.90;;;;;;6095797;23;20451;-71
2023/09/04 12:53:41;;;;;;;1.07;1.07;;;23.20;99.90;;;;;;6095024;23;20416;-71
2023/09/04 12:56:08;;;;;;;3.07;2.87;;;23.20;99.90;;;;;;6097229;23;20479;-71
2023/09/04 12:58:34;;;;;;;1.00;1.00;;;23.20;99.90;;;;;;6094765;23;20479;-71
2023/09/04 13:01:04;;;;;;;1.43;1.43;;;23.20;99.90;;;;;;6095927;23;20451;-70
2023/09/04 13:03:31;;;;;;;1.23;1.20;;;23.30;99.90;;;;;;6096409;23;20516;-70
2023/09/04 13:05:58;;;;;;;1.60;1.60;;;23.30;99.90;;;;;;6092875;23;20420;-71
2023/09/04 13:08:25;;;;;;;1.43;1.33;;;23.40;99.90;;;;;;6096498;23;20414;-70
2023/09/04 13:10:52;;;;;;;1.20;1.20;;;23.40;99.90;;;;;;6096079;23;20897;-71
2023/09/04 13:13:19;;;;;;;1.50;1.40;;;23.30;99.90;;;;;;6094919;23;20979;-70
2023/09/04 13:15:46;;;;;;;1.30;1.30;;;23.30;99.90;;;;;;6096512;23;20434;-71
2023/09/04 13:18:14;;;;;;;1.03;1.03;;;23.40;99.90;;;;;;6096801;23;20424;-71
2023/09/04 13:20:40;;;;;;;1.00;1.00;;;23.30;99.90;;;;;;6095633;23;20444;-70
2023/09/04 13:23:07;;;;;;;1.17;1.17;;;23.30;99.90;;;;;;6095909;23;20428;-70
2023/09/04 13:25:34;;;;;;;1.30;1.30;;;23.40;99.90;;;;;;6096332;23;20499;-70
2023/09/04 13:28:01;;;;;;;1.60;1.50;;;23.40;99.90;;;;;;6095774;23;20428;-70
2023/09/04 13:30:27;;;;;;;1.40;1.40;;;23.40;99.90;;;;;;6096310;23;20435;-73
2023/09/04 13:32:54;;;;;;;1.30;1.20;;;23.40;99.90;;;;;;6096434;23;20464;-69
2023/09/04 13:35:22;;;;;;;1.00;1.00;;;23.50;99.90;;;;;;6094818;23;20426;-70
2023/09/04 13:37:49;;;;;;;0.90;0.90;;;23.50;99.90;;;;;;6093038;23;20424;-71
2023/09/04 13:40:16;;;;;;;1.40;1.30;;;23.50;99.90;;;;;;6090869;23;20532;-68
2023/09/04 13:42:43;;;;;;;1.10;1.10;;;23.60;99.90;;;;;;6092707;23;20424;-70
2023/09/04 13:45:10;;;;;;;0.90;0.90;;;23.50;99.90;;;;;;6093866;23;20959;-70
2023/09/04 13:47:37;;;;;;;0.97;0.97;;;23.50;99.90;;;;;;6093575;23;20420;-70
2023/09/04 13:50:04;;;;;;;1.10;1.10;;;23.50;99.90;;;;;;6093059;23;20424;-70
2023/09/04 13:52:32;;;;;;;1.00;1.00;;;23.50;99.90;;;;;;6092902;23;20552;-70
2023/09/04 13:54:58;;;;;;;1.30;1.20;;;23.50;99.90;;;;;;6093858;23;20420;-69
2023/09/04 13:57:25;;;;;;;1.10;1.10;;;23.50;99.90;;;;;;6091967;23;20432;-70
2023/09/04 13:59:52;;;;;;;1.00;1.00;;;23.40;99.90;;;;;;6091812;23;20435;-71
2023/09/04 14:02:19;;;;;;;1.30;1.30;;;23.50;99.90;;;;;;6090612;23;20459;-70
2023/09/04 14:04:45;;;;;;;1.17;1.17;;;23.50;99.90;;;;;;6091123;23;20571;-71
2023/09/04 14:07:12;;;;;;;1.63;1.63;;;23.50;99.90;;;;;;6090478;23;20420;-71
2023/09/04 14:09:40;;;;;;;1.30;1.30;;;23.50;99.90;;;;;;6092515;23;20421;-70
2023/09/04 14:12:09;;;;;;;1.10;1.10;;;23.50;99.90;;;;;;6091332;23;20443;-70
2023/09/04 14:14:36;;;;;;;1.20;1.10;;;23.60;99.90;;;;;;6093815;23;20417;-71
2023/09/04 14:17:02;;;;;;;1.20;1.20;;;23.70;99.90;;;;;;6094019;23;20435;-71
2023/09/04 14:19:29;;;;;;;1.30;1.30;;;23.70;99.90;;;;;;6092500;23;20424;-71
2023/09/04 14:21:56;;;;;;;1.10;1.10;;;23.80;99.90;;;;;;6092640;23;20450;-71
2023/09/04 14:24:23;;;;;;;1.47;1.37;;;23.80;99.90;;;;;;6094341;23;20447;-71
2023/09/04 14:26:51;;;;;;;1.20;1.20;;;23.90;99.90;;;;;;6094334;23;20431;-70
2023/09/04 14:29:18;;;;;;;1.50;1.43;;;23.80;99.90;;;;;;6094003;23;20753;-72
2023/09/04 14:31:45;;;;;;;1.20;1.20;;;23.80;99.90;;;;;;6093562;23;20448;-74
2023/09/04 14:34:12;;;;;;;1.90;1.30;;;23.70;99.90;;;;;;6095023;23;20438;-71
2023/09/04 14:36:39;;;;;;;1.63;1.40;;;23.70;99.90;;;;;;6096213;23;20430;-71
2023/09/04 14:39:05;;;;;;;1.17;1.17;;;23.70;99.90;;;;;;6094796;23;20432;-70
2023/09/04 14:41:32;;;;;;;1.37;1.37;;;23.60;99.90;;;;;;6094721;23;20441;-71
2023/09/04 14:44:01;;;;;;;1.30;1.30;;;23.50;99.90;;;;;;6094664;23;20445;-71
2023/09/04 14:46:30;;;;;;;1.23;1.13;;;23.50;99.90;;;;;;6093690;23;20427;-70
2023/09/04 14:48:57;;;;;;;1.30;1.30;;;23.50;99.90;;;;;;6092841;23;20420;-70
2023/09/04 14:51:24;;;;;;;1.30;1.30;;;23.70;99.90;;;;;;6093258;23;20447;-70
2023/09/04 14:53:52;;;;;;;1.00;1.00;;;23.80;99.90;;;;;;6093520;23;20469;-71
2023/09/04 14:56:19;;;;;;;1.27;1.27;;;23.90;99.90;;;;;;6094185;23;20520;-71
2023/09/04 14:58:46;;;;;;;1.40;1.40;;;24.00;99.90;;;;;;6092063;23;20435;-71
2023/09/04 15:01:14;;;;;;;1.47;1.47;;;24.00;99.90;;;;;;6092479;23;20448;-69
2023/09/04 15:03:41;;;;;;;1.50;1.50;;;24.00;99.90;;;;;;6094029;23;20428;-71
2023/09/04 15:06:09;;;;;;;1.20;1.20;;;24.00;99.90;;;;;;6094139;23;20453;-70
2023/09/04 15:08:36;;;;;;;1.57;1.57;;;24.00;99.90;;;;;;6093320;23;20902;-71
2023/09/04 15:11:04;;;;;;;2.00;1.90;;;23.90;99.90;;;;;;6092498;23;20452;-70
2023/09/04 15:13:31;;;;;;;1.60;1.50;;;23.80;99.90;;;;;;6093115;23;20424;-70
2023/09/04 15:15:58;;;;;;;1.50;1.40;;;23.80;99.90;;;;;;6093956;23;20429;-71
2023/09/04 15:18:26;;;;;;;1.30;1.30;;;23.80;99.90;;;;;;6093593;23;20428;-70
2023/09/04 15:20:53;;;;;;;1.63;1.63;;;23.80;99.90;;;;;;6092150;23;20933;-71
2023/09/04 15:23:20;;;;;;;1.47;1.47;;;23.70;99.90;;;;;;6092775;23;20428;-71
2023/09/04 15:25:47;;;;;;;1.50;1.50;;;23.70;99.90;;;;;;6092724;23;20475;-69
2023/09/04 15:28:14;;;;;;;1.40;1.40;;;23.70;99.90;;;;;;6093447;23;20475;-71
2023/09/04 15:30:41;;;;;;;1.40;1.40;;;23.70;99.90;;;;;;6093889;23;20440;-71
2023/09/04 15:33:07;;;;;;;1.37;1.37;;;23.80;99.90;;;;;;6094244;23;20747;-70
2023/09/04 15:35:37;;;;;;;1.43;1.43;;;23.90;99.90;;;;;;6093670;23;20482;-71
2023/09/04 15:38:04;;;;;;;1.30;1.30;;;23.90;99.90;;;;;;6092139;23;20753;-71
2023/09/04 15:40:32;;;;;;;1.60;1.60;;;23.90;99.90;;;;;;6092914;23;20424;-71
2023/09/04 15:42:59;;;;;;;1.67;1.67;;;23.90;99.90;;;;;;6093285;23;20932;-70
2023/09/04 15:45:26;;;;;;;1.40;1.40;;;23.90;99.90;;;;;;6093530;23;20471;-71
2023/09/04 15:47:53;;;;;;;1.83;1.83;;;23.90;99.90;;;;;;6093021;23;20436;-72
2023/09/04 15:50:20;;;;;;;1.57;1.57;;;23.90;99.90;;;;;;6092450;23;20452;-71
2023/09/04 15:52:48;;;;;;;2.17;2.07;;;23.90;99.90;;;;;;6092386;23;20428;-71
2023/09/04 15:55:14;;;;;;;2.03;2.03;;;24.00;99.90;;;;;;6093657;23;20420;-71
2023/09/04 15:57:41;;;;;;;1.60;1.60;;;23.90;99.90;;;;;;6093144;23;20420;-71
2023/09/04 16:00:09;;;;;;;2.80;2.00;;;23.90;99.90;;;;;;6091907;23;20420;-70
2023/09/04 16:02:36;;;;;;;1.80;1.80;;;23.80;99.90;;;;;;6092375;23;20539;-72
2023/09/04 16:05:02;;;;;;;2.20;2.20;;;23.80;99.90;;;;;;6093628;23;20451;-71
2023/09/04 16:07:29;;;;;;;2.07;1.97;;;23.80;99.90;;;;;;6093280;23;20752;-71
2023/09/04 16:09:57;;;;;;;2.27;2.20;;;23.80;99.90;;;;;;6092434;23;20447;-69
2023/09/04 16:12:24;;;;;;;2.00;2.00;;;23.90;99.90;;;;;;6091306;23;20470;-70
2023/09/04 16:14:51;;;;;;;2.10;2.10;;;23.80;99.90;;;;;;6091591;23;20423;-71
2023/09/04 16:17:18;;;;;;;2.07;2.07;;;23.70;99.90;;;;;;6091794;23;20413;-70
2023/09/04 16:19:45;;;;;;;2.40;2.10;;;23.70;99.90;;;;;;6092745;23;20421;-70
2023/09/04 16:22:12;;;;;;;2.60;2.53;;;23.70;99.90;;;;;;6092904;23;20443;-70
2023/09/04 16:24:39;;;;;;;2.10;2.10;;;23.70;99.90;;;;;;6092762;23;20452;-70
2023/09/04 16:27:08;;;;;;;2.40;2.30;;;23.60;99.90;;;;;;6092646;23;20420;-72
2023/09/04 16:29:35;;;;;;;2.50;2.27;;;23.50;99.90;;;;;;6092884;23;20455;-71
2023/09/04 16:32:01;;;;;;;2.03;2.03;;;23.60;99.90;;;;;;6093619;23;20452;-70
2023/09/04 16:34:29;;;;;;;2.23;2.13;;;23.60;99.90;;;;;;6093993;23;20632;-70
2023/09/04 16:36:56;;;;;;;2.23;2.23;;;23.50;99.90;;;;;;6093760;23;20511;-70
2023/09/04 16:39:22;;;;;;;2.03;1.93;;;23.50;99.90;;;;;;6092862;23;20455;-70
2023/09/04 16:41:49;;;;;;;2.13;2.13;;;23.40;99.90;;;;;;6093392;23;20554;-70
2023/09/04 16:44:17;;;;;;;2.27;2.17;;;23.40;99.90;;;;;;6093333;23;20423;-71
2023/09/04 16:46:45;;;;;;;2.37;2.27;;;23.40;99.90;;;;;;6092895;23;20911;-70
2023/09/04 16:49:11;;;;;;;2.63;2.53;;;23.30;99.90;;;;;;6092938;23;20423;-71